sensor_id;sensor_type;location;lat;lon;timestamp;P1;durP1;ratioP1;P2;durP2;ratioP2
6121;SDS011;3091;51.506;7.672;2022-12-29T00:01:20;12.53;;;12.03;;
6121;SDS011;3091;51.506;7.672;2022-12-29T00:03:46;12.43;;;11.93;;
6121;SDS011;3091;51.506;7.672;2022-12-29T00:06:12;12.17;;;11.70;;
6121;SDS011;3091;51.506;7.672;2022-12-29T00:08:38;12.40;;;12.00;;
6121;SDS011;3091;51.506;7.672;2022-12-29T00:11:07;12.00;;;11.60;;
6121;SDS011;3091;51.506;7.672;2022-12-29T00:13:33;11.60;;;11.20;;
6121;SDS011;3091;51.506;7.672;2022-12-29T00:16:18;12.30;;;11.90;;
6121;SDS011;3091;51.506;7.672;2022-12-29T00:18:44;12.07;;;11.67;;
6121;SDS011;3091;51.506;7.672;2022-12-29T00:21:14;12.10;;;11.70;;
6121;SDS011;3091;51.506;7.672;2022-12-29T00:24:02;12.00;;;11.60;;
6121;SDS011;3091;51.506;7.672;2022-12-29T00:29:55;12.10;;;11.70;;
6121;SDS011;3091;51.506;7.672;2022-12-29T00:32:39;13.63;;;13.13;;
6121;SDS011;3091;51.506;7.672;2022-12-29T00:35:28;13.90;;;13.40;;
6121;SDS011;3091;51.506;7.672;2022-12-29T00:37:55;14.37;;;13.87;;
6121;SDS011;3091;51.506;7.672;2022-12-29T00:40:41;13.37;;;12.87;;
6121;SDS011;3091;51.506;7.672;2022-12-29T00:43:26;12.60;;;12.10;;
6121;SDS011;3091;51.506;7.672;2022-12-29T00:46:10;12.40;;;12.00;;
6121;SDS011;3091;51.506;7.672;2022-12-29T00:48:36;15.87;;;15.27;;
6121;SDS011;3091;51.506;7.672;2022-12-29T00:51:21;14.80;;;14.30;;
6121;SDS011;3091;51.506;7.672;2022-12-29T00:53:47;13.70;;;13.20;;
6121;SDS011;3091;51.506;7.672;2022-12-29T00:56:13;13.67;;;13.17;;
6121;SDS011;3091;51.506;7.672;2022-12-29T00:58:39;13.10;;;12.70;;
6121;SDS011;3091;51.506;7.672;2022-12-29T01:01:06;12.50;;;12.10;;
6121;SDS011;3091;51.506;7.672;2022-12-29T01:03:33;13.77;;;13.27;;
6121;SDS011;3091;51.506;7.672;2022-12-29T01:06:00;13.77;;;13.27;;
6121;SDS011;3091;51.506;7.672;2022-12-29T01:08:29;13.30;;;12.80;;
6121;SDS011;3091;51.506;7.672;2022-12-29T01:11:06;13.60;;;13.10;;
6121;SDS011;3091;51.506;7.672;2022-12-29T01:13:32;14.60;;;14.10;;
6121;SDS011;3091;51.506;7.672;2022-12-29T01:15:58;14.20;;;13.70;;
6121;SDS011;3091;51.506;7.672;2022-12-29T01:18:25;15.80;;;15.20;;
6121;SDS011;3091;51.506;7.672;2022-12-29T01:20:51;15.43;;;14.83;;
6121;SDS011;3091;51.506;7.672;2022-12-29T01:23:23;15.90;;;15.20;;
6121;SDS011;3091;51.506;7.672;2022-12-29T01:25:49;21.40;;;20.30;;
6121;SDS011;3091;51.506;7.672;2022-12-29T01:28:15;21.20;;;20.10;;
6121;SDS011;3091;51.506;7.672;2022-12-29T01:30:41;21.40;;;20.30;;
6121;SDS011;3091;51.506;7.672;2022-12-29T01:33:07;20.87;;;19.87;;
6121;SDS011;3091;51.506;7.672;2022-12-29T01:35:33;22.40;;;21.20;;
6121;SDS011;3091;51.506;7.672;2022-12-29T01:37:59;21.03;;;19.93;;
6121;SDS011;3091;51.506;7.672;2022-12-29T01:40:25;19.90;;;19.00;;
6121;SDS011;3091;51.506;7.672;2022-12-29T01:42:51;17.50;;;16.70;;
6121;SDS011;3091;51.506;7.672;2022-12-29T01:45:17;15.73;;;14.93;;
6121;SDS011;3091;51.506;7.672;2022-12-29T01:47:59;15.17;;;14.57;;
6121;SDS011;3091;51.506;7.672;2022-12-29T01:52:59;15.00;;;14.40;;
6121;SDS011;3091;51.506;7.672;2022-12-29T01:55:27;14.47;;;13.97;;
6121;SDS011;3091;51.506;7.672;2022-12-29T01:57:55;14.80;;;14.20;;
6121;SDS011;3091;51.506;7.672;2022-12-29T02:00:22;14.60;;;14.10;;
6121;SDS011;3091;51.506;7.672;2022-12-29T02:02:50;14.57;;;14.07;;
6121;SDS011;3091;51.506;7.672;2022-12-29T02:07:45;15.27;;;14.67;;
6121;SDS011;3091;51.506;7.672;2022-12-29T02:10:12;14.70;;;14.10;;
6121;SDS011;3091;51.506;7.672;2022-12-29T02:12:38;14.60;;;14.10;;
6121;SDS011;3091;51.506;7.672;2022-12-29T02:15:05;13.90;;;13.40;;
6121;SDS011;3091;51.506;7.672;2022-12-29T02:17:39;13.83;;;13.33;;
6121;SDS011;3091;51.506;7.672;2022-12-29T02:20:18;13.37;;;12.87;;
6121;SDS011;3091;51.506;7.672;2022-12-29T02:28:12;13.10;;;12.60;;
6121;SDS011;3091;51.506;7.672;2022-12-29T02:30:56;12.30;;;11.90;;
6121;SDS011;3091;51.506;7.672;2022-12-29T02:33:50;12.20;;;11.80;;
6121;SDS011;3091;51.506;7.672;2022-12-29T02:36:29;12.20;;;11.80;;
6121;SDS011;3091;51.506;7.672;2022-12-29T02:41:33;13.80;;;13.30;;
6121;SDS011;3091;51.506;7.672;2022-12-29T02:46:34;14.30;;;13.80;;
6121;SDS011;3091;51.506;7.672;2022-12-29T02:54:12;12.57;;;12.17;;
6121;SDS011;3091;51.506;7.672;2022-12-29T02:56:57;12.00;;;11.60;;
6121;SDS011;3091;51.506;7.672;2022-12-29T02:59:23;12.33;;;11.93;;
6121;SDS011;3091;51.506;7.672;2022-12-29T03:07:43;11.97;;;11.57;;
6121;SDS011;3091;51.506;7.672;2022-12-29T03:10:14;11.57;;;11.17;;
6121;SDS011;3091;51.506;7.672;2022-12-29T03:12:46;11.60;;;11.20;;
6121;SDS011;3091;51.506;7.672;2022-12-29T03:18:21;11.73;;;11.33;;
6121;SDS011;3091;51.506;7.672;2022-12-29T03:20:52;11.03;;;10.63;;
6121;SDS011;3091;51.506;7.672;2022-12-29T03:23:19;11.70;;;11.30;;
6121;SDS011;3091;51.506;7.672;2022-12-29T03:25:50;11.47;;;11.10;;
6121;SDS011;3091;51.506;7.672;2022-12-29T03:28:18;11.10;;;10.70;;
6121;SDS011;3091;51.506;7.672;2022-12-29T03:30:46;12.00;;;11.60;;
6121;SDS011;3091;51.506;7.672;2022-12-29T03:33:12;17.13;;;16.43;;
6121;SDS011;3091;51.506;7.672;2022-12-29T03:35:40;23.17;;;22.07;;
6121;SDS011;3091;51.506;7.672;2022-12-29T03:40:33;30.17;;;28.57;;
6121;SDS011;3091;51.506;7.672;2022-12-29T03:42:59;37.57;;;35.57;;
6121;SDS011;3091;51.506;7.672;2022-12-29T03:45:27;43.97;;;41.57;;
6121;SDS011;3091;51.506;7.672;2022-12-29T03:47:53;45.70;;;43.10;;
6121;SDS011;3091;51.506;7.672;2022-12-29T03:50:19;44.90;;;42.30;;
6121;SDS011;3091;51.506;7.672;2022-12-29T03:52:45;44.60;;;42.00;;
6121;SDS011;3091;51.506;7.672;2022-12-29T03:55:11;42.50;;;40.00;;
6121;SDS011;3091;51.506;7.672;2022-12-29T03:57:37;44.40;;;41.80;;
6121;SDS011;3091;51.506;7.672;2022-12-29T04:00:04;44.93;;;42.33;;
6121;SDS011;3091;51.506;7.672;2022-12-29T04:02:30;41.77;;;39.27;;
6121;SDS011;3091;51.506;7.672;2022-12-29T04:04:56;41.90;;;39.40;;
6121;SDS011;3091;51.506;7.672;2022-12-29T04:07:22;42.17;;;39.67;;
6121;SDS011;3091;51.506;7.672;2022-12-29T04:09:48;40.33;;;37.93;;
6121;SDS011;3091;51.506;7.672;2022-12-29T04:12:14;40.77;;;38.17;;
6121;SDS011;3091;51.506;7.672;2022-12-29T04:14:40;38.87;;;36.47;;
6121;SDS011;3091;51.506;7.672;2022-12-29T04:17:06;37.13;;;34.83;;
6121;SDS011;3091;51.506;7.672;2022-12-29T04:19:32;38.13;;;35.83;;
6121;SDS011;3091;51.506;7.672;2022-12-29T04:21:58;37.57;;;35.27;;
6121;SDS011;3091;51.506;7.672;2022-12-29T04:24:24;38.10;;;35.80;;
6121;SDS011;3091;51.506;7.672;2022-12-29T04:26:50;38.87;;;36.47;;
6121;SDS011;3091;51.506;7.672;2022-12-29T04:29:19;36.83;;;34.53;;
6121;SDS011;3091;51.506;7.672;2022-12-29T04:31:45;38.57;;;35.67;;
6121;SDS011;3091;51.506;7.672;2022-12-29T04:34:11;37.27;;;35.00;;
6121;SDS011;3091;51.506;7.672;2022-12-29T04:36:37;36.97;;;34.77;;
6121;SDS011;3091;51.506;7.672;2022-12-29T04:39:04;36.80;;;34.60;;
6121;SDS011;3091;51.506;7.672;2022-12-29T04:41:33;34.27;;;32.27;;
6121;SDS011;3091;51.506;7.672;2022-12-29T04:43:59;33.50;;;31.60;;
6121;SDS011;3091;51.506;7.672;2022-12-29T04:46:25;32.30;;;30.50;;
6121;SDS011;3091;51.506;7.672;2022-12-29T04:48:51;26.63;;;25.33;;
6121;SDS011;3091;51.506;7.672;2022-12-29T04:51:17;21.07;;;20.07;;
6121;SDS011;3091;51.506;7.672;2022-12-29T04:53:43;18.70;;;17.80;;
6121;SDS011;3091;51.506;7.672;2022-12-29T04:56:09;17.57;;;16.87;;
6121;SDS011;3091;51.506;7.672;2022-12-29T04:58:35;17.90;;;17.10;;
6121;SDS011;3091;51.506;7.672;2022-12-29T05:01:01;17.57;;;16.87;;
6121;SDS011;3091;51.506;7.672;2022-12-29T05:03:27;18.00;;;17.20;;
6121;SDS011;3091;51.506;7.672;2022-12-29T05:05:54;17.00;;;16.30;;
6121;SDS011;3091;51.506;7.672;2022-12-29T05:08:20;16.93;;;16.23;;
6121;SDS011;3091;51.506;7.672;2022-12-29T05:10:46;17.10;;;16.40;;
6121;SDS011;3091;51.506;7.672;2022-12-29T05:13:12;17.00;;;16.30;;
6121;SDS011;3091;51.506;7.672;2022-12-29T05:15:38;17.43;;;16.73;;
6121;SDS011;3091;51.506;7.672;2022-12-29T05:18:04;18.43;;;17.63;;
6121;SDS011;3091;51.506;7.672;2022-12-29T05:20:30;16.33;;;15.63;;
6121;SDS011;3091;51.506;7.672;2022-12-29T05:25:25;15.30;;;14.70;;
6121;SDS011;3091;51.506;7.672;2022-12-29T05:27:51;14.60;;;14.10;;
6121;SDS011;3091;51.506;7.672;2022-12-29T05:30:17;13.90;;;13.40;;
6121;SDS011;3091;51.506;7.672;2022-12-29T05:32:43;13.00;;;12.60;;
6121;SDS011;3091;51.506;7.672;2022-12-29T05:35:09;12.53;;;12.13;;
6121;SDS011;3091;51.506;7.672;2022-12-29T05:37:35;13.00;;;12.60;;
6121;SDS011;3091;51.506;7.672;2022-12-29T05:40:04;11.60;;;11.20;;
6121;SDS011;3091;51.506;7.672;2022-12-29T05:42:30;11.30;;;10.90;;
6121;SDS011;3091;51.506;7.672;2022-12-29T05:44:56;11.70;;;11.30;;
6121;SDS011;3091;51.506;7.672;2022-12-29T05:47:22;11.50;;;11.10;;
6121;SDS011;3091;51.506;7.672;2022-12-29T05:49:50;11.50;;;11.10;;
6121;SDS011;3091;51.506;7.672;2022-12-29T05:52:16;11.57;;;11.17;;
6121;SDS011;3091;51.506;7.672;2022-12-29T05:54:42;11.20;;;10.90;;
6121;SDS011;3091;51.506;7.672;2022-12-29T05:57:09;11.00;;;10.70;;
6121;SDS011;3091;51.506;7.672;2022-12-29T05:59:35;11.10;;;10.70;;
6121;SDS011;3091;51.506;7.672;2022-12-29T06:02:01;11.10;;;10.80;;
6121;SDS011;3091;51.506;7.672;2022-12-29T06:04:27;11.70;;;11.30;;
6121;SDS011;3091;51.506;7.672;2022-12-29T06:06:53;11.00;;;10.70;;
6121;SDS011;3091;51.506;7.672;2022-12-29T06:09:19;11.23;;;10.83;;
6121;SDS011;3091;51.506;7.672;2022-12-29T06:11:45;11.63;;;11.23;;
6121;SDS011;3091;51.506;7.672;2022-12-29T06:14:11;11.40;;;11.00;;
6121;SDS011;3091;51.506;7.672;2022-12-29T06:16:37;11.87;;;11.47;;
6121;SDS011;3091;51.506;7.672;2022-12-29T06:19:03;11.13;;;10.83;;
6121;SDS011;3091;51.506;7.672;2022-12-29T06:21:29;11.23;;;10.83;;
6121;SDS011;3091;51.506;7.672;2022-12-29T06:23:57;11.40;;;11.00;;
6121;SDS011;3091;51.506;7.672;2022-12-29T06:26:23;11.50;;;11.10;;
6121;SDS011;3091;51.506;7.672;2022-12-29T06:28:49;11.30;;;10.90;;
6121;SDS011;3091;51.506;7.672;2022-12-29T06:31:15;11.13;;;10.73;;
6121;SDS011;3091;51.506;7.672;2022-12-29T06:33:41;10.80;;;10.50;;
6121;SDS011;3091;51.506;7.672;2022-12-29T06:36:07;11.60;;;11.20;;
6121;SDS011;3091;51.506;7.672;2022-12-29T06:38:33;11.30;;;11.00;;
6121;SDS011;3091;51.506;7.672;2022-12-29T06:41:00;11.27;;;10.87;;
6121;SDS011;3091;51.506;7.672;2022-12-29T06:43:26;11.50;;;11.10;;
6121;SDS011;3091;51.506;7.672;2022-12-29T06:45:52;11.00;;;10.70;;
6121;SDS011;3091;51.506;7.672;2022-12-29T06:48:18;11.37;;;10.97;;
6121;SDS011;3091;51.506;7.672;2022-12-29T06:50:44;11.50;;;11.10;;
6121;SDS011;3091;51.506;7.672;2022-12-29T06:53:10;11.20;;;10.80;;
6121;SDS011;3091;51.506;7.672;2022-12-29T06:55:36;10.73;;;10.43;;
6121;SDS011;3091;51.506;7.672;2022-12-29T06:58:02;11.30;;;10.93;;
6121;SDS011;3091;51.506;7.672;2022-12-29T07:00:28;11.20;;;10.80;;
6121;SDS011;3091;51.506;7.672;2022-12-29T07:02:55;10.53;;;10.23;;
6121;SDS011;3091;51.506;7.672;2022-12-29T07:05:23;11.40;;;10.90;;
6121;SDS011;3091;51.506;7.672;2022-12-29T07:07:51;11.20;;;10.80;;
6121;SDS011;3091;51.506;7.672;2022-12-29T07:10:17;11.00;;;10.60;;
6121;SDS011;3091;51.506;7.672;2022-12-29T07:12:44;11.07;;;10.57;;
6121;SDS011;3091;51.506;7.672;2022-12-29T07:15:10;10.50;;;10.20;;
6121;SDS011;3091;51.506;7.672;2022-12-29T07:17:36;10.83;;;10.50;;
6121;SDS011;3091;51.506;7.672;2022-12-29T07:20:02;11.20;;;10.80;;
6121;SDS011;3091;51.506;7.672;2022-12-29T07:22:28;10.70;;;10.40;;
6121;SDS011;3091;51.506;7.672;2022-12-29T07:24:54;15.20;;;14.60;;
6121;SDS011;3091;51.506;7.672;2022-12-29T07:27:20;20.43;;;19.53;;
6121;SDS011;3091;51.506;7.672;2022-12-29T07:29:46;22.10;;;21.00;;
6121;SDS011;3091;51.506;7.672;2022-12-29T07:32:12;21.70;;;20.70;;
6121;SDS011;3091;51.506;7.672;2022-12-29T07:34:38;17.90;;;17.20;;
6121;SDS011;3091;51.506;7.672;2022-12-29T07:37:04;16.60;;;16.00;;
6121;SDS011;3091;51.506;7.672;2022-12-29T07:39:30;15.30;;;14.70;;
6121;SDS011;3091;51.506;7.672;2022-12-29T07:41:56;15.53;;;14.83;;
6121;SDS011;3091;51.506;7.672;2022-12-29T07:44:23;15.07;;;14.50;;
6121;SDS011;3091;51.506;7.672;2022-12-29T07:46:48;15.10;;;14.60;;
6121;SDS011;3091;51.506;7.672;2022-12-29T07:49:15;14.47;;;13.97;;
6121;SDS011;3091;51.506;7.672;2022-12-29T07:51:41;14.40;;;13.90;;
6121;SDS011;3091;51.506;7.672;2022-12-29T07:54:08;14.27;;;13.77;;
6121;SDS011;3091;51.506;7.672;2022-12-29T07:56:36;13.47;;;12.97;;
6121;SDS011;3091;51.506;7.672;2022-12-29T07:59:03;12.90;;;12.50;;
6121;SDS011;3091;51.506;7.672;2022-12-29T08:01:29;12.67;;;12.23;;
6121;SDS011;3091;51.506;7.672;2022-12-29T08:03:55;12.10;;;11.70;;
6121;SDS011;3091;51.506;7.672;2022-12-29T08:06:21;12.77;;;12.27;;
6121;SDS011;3091;51.506;7.672;2022-12-29T08:08:47;12.00;;;11.60;;
6121;SDS011;3091;51.506;7.672;2022-12-29T08:11:13;11.83;;;11.43;;
6121;SDS011;3091;51.506;7.672;2022-12-29T08:13:39;11.47;;;11.10;;
6121;SDS011;3091;51.506;7.672;2022-12-29T08:16:05;11.40;;;11.00;;
6121;SDS011;3091;51.506;7.672;2022-12-29T08:18:31;11.40;;;11.00;;
6121;SDS011;3091;51.506;7.672;2022-12-29T08:21:01;11.83;;;11.40;;
6121;SDS011;3091;51.506;7.672;2022-12-29T08:23:27;11.13;;;10.83;;
6121;SDS011;3091;51.506;7.672;2022-12-29T08:26:00;11.10;;;10.80;;
6121;SDS011;3091;51.506;7.672;2022-12-29T08:28:28;11.30;;;10.90;;
6121;SDS011;3091;51.506;7.672;2022-12-29T08:30:58;11.43;;;11.03;;
6121;SDS011;3091;51.506;7.672;2022-12-29T08:33:24;10.97;;;10.57;;
6121;SDS011;3091;51.506;7.672;2022-12-29T08:35:50;10.90;;;10.60;;
6121;SDS011;3091;51.506;7.672;2022-12-29T08:38:16;10.43;;;10.13;;
6121;SDS011;3091;51.506;7.672;2022-12-29T08:40:43;10.20;;;9.90;;
6121;SDS011;3091;51.506;7.672;2022-12-29T08:43:09;10.13;;;9.83;;
6121;SDS011;3091;51.506;7.672;2022-12-29T08:45:35;10.20;;;9.90;;
6121;SDS011;3091;51.506;7.672;2022-12-29T08:48:01;10.20;;;9.90;;
6121;SDS011;3091;51.506;7.672;2022-12-29T08:50:27;10.70;;;10.40;;
6121;SDS011;3091;51.506;7.672;2022-12-29T08:52:54;11.17;;;10.70;;
6121;SDS011;3091;51.506;7.672;2022-12-29T08:55:20;11.37;;;10.60;;
6121;SDS011;3091;51.506;7.672;2022-12-29T08:57:46;10.57;;;10.27;;
6121;SDS011;3091;51.506;7.672;2022-12-29T09:00:12;10.70;;;10.30;;
6121;SDS011;3091;51.506;7.672;2022-12-29T09:02:39;10.70;;;10.40;;
6121;SDS011;3091;51.506;7.672;2022-12-29T09:05:06;10.30;;;10.00;;
6121;SDS011;3091;51.506;7.672;2022-12-29T09:07:32;10.87;;;10.37;;
6121;SDS011;3091;51.506;7.672;2022-12-29T09:09:58;10.57;;;10.27;;
6121;SDS011;3091;51.506;7.672;2022-12-29T09:12:25;10.70;;;10.40;;
6121;SDS011;3091;51.506;7.672;2022-12-29T09:14:51;11.63;;;10.93;;
6121;SDS011;3091;51.506;7.672;2022-12-29T09:17:17;16.87;;;15.80;;
6121;SDS011;3091;51.506;7.672;2022-12-29T09:20:02;20.47;;;19.47;;
6121;SDS011;3091;51.506;7.672;2022-12-29T09:22:28;24.70;;;23.40;;
6121;SDS011;3091;51.506;7.672;2022-12-29T09:24:55;30.73;;;29.03;;
6121;SDS011;3091;51.506;7.672;2022-12-29T09:27:21;28.07;;;26.67;;
6121;SDS011;3091;51.506;7.672;2022-12-29T09:29:50;30.30;;;28.80;;
6121;SDS011;3091;51.506;7.672;2022-12-29T09:32:16;31.47;;;29.90;;
6121;SDS011;3091;51.506;7.672;2022-12-29T09:34:42;27.70;;;26.40;;
6121;SDS011;3091;51.506;7.672;2022-12-29T09:37:08;23.10;;;22.10;;
6121;SDS011;3091;51.506;7.672;2022-12-29T09:39:34;19.80;;;19.00;;
6121;SDS011;3091;51.506;7.672;2022-12-29T09:47:17;17.00;;;16.30;;
6121;SDS011;3091;51.506;7.672;2022-12-29T09:49:53;13.30;;;12.80;;
6121;SDS011;3091;51.506;7.672;2022-12-29T09:52:24;13.63;;;12.63;;
6121;SDS011;3091;51.506;7.672;2022-12-29T09:54:58;11.20;;;10.70;;
6121;SDS011;3091;51.506;7.672;2022-12-29T09:57:29;10.60;;;10.30;;
6121;SDS011;3091;51.506;7.672;2022-12-29T09:59:59;12.40;;;11.90;;
6121;SDS011;3091;51.506;7.672;2022-12-29T10:02:32;11.63;;;11.13;;
6121;SDS011;3091;51.506;7.672;2022-12-29T10:04:59;12.00;;;11.60;;
6121;SDS011;3091;51.506;7.672;2022-12-29T10:07:36;12.23;;;11.83;;
6121;SDS011;3091;51.506;7.672;2022-12-29T10:10:14;11.90;;;11.50;;
6121;SDS011;3091;51.506;7.672;2022-12-29T10:12:56;12.80;;;12.30;;
6121;SDS011;3091;51.506;7.672;2022-12-29T10:15:42;12.53;;;12.13;;
6121;SDS011;3091;51.506;7.672;2022-12-29T10:20:55;11.30;;;11.00;;
6121;SDS011;3091;51.506;7.672;2022-12-29T10:26:30;11.37;;;10.90;;
6121;SDS011;3091;51.506;7.672;2022-12-29T10:31:24;10.70;;;10.30;;
6121;SDS011;3091;51.506;7.672;2022-12-29T10:33:51;10.50;;;10.20;;
6121;SDS011;3091;51.506;7.672;2022-12-29T10:41:55;11.00;;;9.93;;
6121;SDS011;3091;51.506;7.672;2022-12-29T10:44:24;9.40;;;9.10;;
6121;SDS011;3091;51.506;7.672;2022-12-29T10:46:59;10.10;;;9.80;;
6121;SDS011;3091;51.506;7.672;2022-12-29T10:49:26;10.20;;;9.90;;
6121;SDS011;3091;51.506;7.672;2022-12-29T10:51:53;10.93;;;10.43;;
6121;SDS011;3091;51.506;7.672;2022-12-29T10:57:40;10.30;;;9.90;;
6121;SDS011;3091;51.506;7.672;2022-12-29T11:00:12;10.33;;;10.00;;
6121;SDS011;3091;51.506;7.672;2022-12-29T11:02:46;10.63;;;10.23;;
6121;SDS011;3091;51.506;7.672;2022-12-29T11:05:36;10.37;;;10.07;;
6121;SDS011;3091;51.506;7.672;2022-12-29T11:08:04;10.67;;;10.27;;
6121;SDS011;3091;51.506;7.672;2022-12-29T11:10:44;11.17;;;10.30;;
6121;SDS011;3091;51.506;7.672;2022-12-29T11:15:39;10.10;;;9.80;;
6121;SDS011;3091;51.506;7.672;2022-12-29T11:18:08;10.10;;;9.80;;
6121;SDS011;3091;51.506;7.672;2022-12-29T11:20:42;10.70;;;10.30;;
6121;SDS011;3091;51.506;7.672;2022-12-29T11:26:05;11.63;;;11.03;;
6121;SDS011;3091;51.506;7.672;2022-12-29T11:28:31;10.53;;;10.13;;
6121;SDS011;3091;51.506;7.672;2022-12-29T11:31:02;10.83;;;10.43;;
6121;SDS011;3091;51.506;7.672;2022-12-29T11:33:28;12.23;;;11.10;;
6121;SDS011;3091;51.506;7.672;2022-12-29T11:36:05;10.40;;;10.10;;
6121;SDS011;3091;51.506;7.672;2022-12-29T11:38:36;16.70;;;11.33;;
6121;SDS011;3091;51.506;7.672;2022-12-29T11:41:02;10.60;;;10.10;;
6121;SDS011;3091;51.506;7.672;2022-12-29T11:45:55;10.40;;;10.10;;
6121;SDS011;3091;51.506;7.672;2022-12-29T11:48:22;10.60;;;10.20;;
6121;SDS011;3091;51.506;7.672;2022-12-29T11:50:50;11.00;;;10.50;;
6121;SDS011;3091;51.506;7.672;2022-12-29T11:53:20;10.27;;;9.97;;
6121;SDS011;3091;51.506;7.672;2022-12-29T11:55:57;10.70;;;10.30;;
6121;SDS011;3091;51.506;7.672;2022-12-29T11:58:32;10.70;;;10.30;;
6121;SDS011;3091;51.506;7.672;2022-12-29T12:01:20;10.47;;;10.17;;
6121;SDS011;3091;51.506;7.672;2022-12-29T12:03:50;10.80;;;10.40;;
6121;SDS011;3091;51.506;7.672;2022-12-29T12:06:20;10.70;;;10.20;;
6121;SDS011;3091;51.506;7.672;2022-12-29T12:08:56;11.53;;;10.60;;
6121;SDS011;3091;51.506;7.672;2022-12-29T12:11:25;10.60;;;10.27;;
6121;SDS011;3091;51.506;7.672;2022-12-29T12:14:06;12.07;;;11.43;;
6121;SDS011;3091;51.506;7.672;2022-12-29T12:31:50;10.90;;;10.60;;
6121;SDS011;3091;51.506;7.672;2022-12-29T12:34:20;10.57;;;10.17;;
6121;SDS011;3091;51.506;7.672;2022-12-29T12:39:39;10.90;;;10.60;;
6121;SDS011;3091;51.506;7.672;2022-12-29T12:45:08;11.37;;;10.83;;
6121;SDS011;3091;51.506;7.672;2022-12-29T12:47:43;15.63;;;10.97;;
6121;SDS011;3091;51.506;7.672;2022-12-29T13:00:19;10.80;;;10.30;;
6121;SDS011;3091;51.506;7.672;2022-12-29T13:03:02;10.67;;;10.37;;
6121;SDS011;3091;51.506;7.672;2022-12-29T13:08:39;11.40;;;10.80;;
6121;SDS011;3091;51.506;7.672;2022-12-29T13:11:10;10.87;;;10.50;;
6121;SDS011;3091;51.506;7.672;2022-12-29T13:13:45;10.80;;;10.50;;
6121;SDS011;3091;51.506;7.672;2022-12-29T13:19:06;11.10;;;10.70;;
6121;SDS011;3091;51.506;7.672;2022-12-29T13:21:45;10.60;;;10.30;;
6121;SDS011;3091;51.506;7.672;2022-12-29T13:26:48;10.60;;;10.30;;
6121;SDS011;3091;51.506;7.672;2022-12-29T13:29:21;11.67;;;10.97;;
6121;SDS011;3091;51.506;7.672;2022-12-29T13:31:54;11.57;;;11.07;;
6121;SDS011;3091;51.506;7.672;2022-12-29T13:34:29;10.97;;;10.50;;
6121;SDS011;3091;51.506;7.672;2022-12-29T13:36:59;10.60;;;10.30;;
6121;SDS011;3091;51.506;7.672;2022-12-29T13:41:57;10.57;;;10.27;;
6121;SDS011;3091;51.506;7.672;2022-12-29T13:44:27;11.13;;;10.73;;
6121;SDS011;3091;51.506;7.672;2022-12-29T13:46:54;10.57;;;10.27;;
6121;SDS011;3091;51.506;7.672;2022-12-29T13:49:21;11.27;;;10.87;;
6121;SDS011;3091;51.506;7.672;2022-12-29T13:51:56;10.90;;;10.60;;
6121;SDS011;3091;51.506;7.672;2022-12-29T13:59:36;10.37;;;10.03;;
6121;SDS011;3091;51.506;7.672;2022-12-29T14:02:17;10.47;;;10.17;;
6121;SDS011;3091;51.506;7.672;2022-12-29T14:04:55;11.60;;;11.20;;
6121;SDS011;3091;51.506;7.672;2022-12-29T14:07:22;10.80;;;10.37;;
6121;SDS011;3091;51.506;7.672;2022-12-29T14:09:54;10.40;;;10.10;;
6121;SDS011;3091;51.506;7.672;2022-12-29T14:14:46;11.27;;;10.87;;
6121;SDS011;3091;51.506;7.672;2022-12-29T14:17:16;10.90;;;10.60;;
6121;SDS011;3091;51.506;7.672;2022-12-29T14:19:43;10.90;;;10.30;;
6121;SDS011;3091;51.506;7.672;2022-12-29T14:22:10;11.20;;;10.80;;
6121;SDS011;3091;51.506;7.672;2022-12-29T14:24:44;10.67;;;10.27;;
6121;SDS011;3091;51.506;7.672;2022-12-29T14:34:51;10.70;;;10.40;;
6121;SDS011;3091;51.506;7.672;2022-12-29T14:37:27;10.90;;;10.50;;
6121;SDS011;3091;51.506;7.672;2022-12-29T14:40:13;10.80;;;10.50;;
6121;SDS011;3091;51.506;7.672;2022-12-29T14:42:40;11.10;;;10.70;;
6121;SDS011;3091;51.506;7.672;2022-12-29T14:45:08;13.00;;;12.13;;
6121;SDS011;3091;51.506;7.672;2022-12-29T14:47:51;10.30;;;10.00;;
6121;SDS011;3091;51.506;7.672;2022-12-29T14:50:21;10.30;;;10.00;;
6121;SDS011;3091;51.506;7.672;2022-12-29T14:52:55;11.07;;;10.67;;
6121;SDS011;3091;51.506;7.672;2022-12-29T14:56:08;10.33;;;10.03;;
6121;SDS011;3091;51.506;7.672;2022-12-29T14:58:13;11.30;;;10.77;;
6121;SDS011;3091;51.506;7.672;2022-12-29T15:00:40;10.50;;;10.20;;
6121;SDS011;3091;51.506;7.672;2022-12-29T15:03:10;10.40;;;10.10;;
6121;SDS011;3091;51.506;7.672;2022-12-29T15:06:12;10.07;;;9.73;;
6121;SDS011;3091;51.506;7.672;2022-12-29T15:08:33;12.00;;;11.23;;
6121;SDS011;3091;51.506;7.672;2022-12-29T15:11:11;10.80;;;10.50;;
6121;SDS011;3091;51.506;7.672;2022-12-29T15:13:40;10.43;;;10.13;;
6121;SDS011;3091;51.506;7.672;2022-12-29T15:16:23;10.13;;;9.83;;
6121;SDS011;3091;51.506;7.672;2022-12-29T15:18:52;10.40;;;10.10;;
6121;SDS011;3091;51.506;7.672;2022-12-29T15:21:21;11.47;;;11.07;;
6121;SDS011;3091;51.506;7.672;2022-12-29T15:23:48;10.83;;;10.43;;
6121;SDS011;3091;51.506;7.672;2022-12-29T15:26:15;10.70;;;10.40;;
6121;SDS011;3091;51.506;7.672;2022-12-29T15:28:47;10.33;;;10.03;;
6121;SDS011;3091;51.506;7.672;2022-12-29T15:31:25;10.33;;;10.03;;
6121;SDS011;3091;51.506;7.672;2022-12-29T15:33:52;10.70;;;10.40;;
6121;SDS011;3091;51.506;7.672;2022-12-29T15:36:25;10.80;;;10.40;;
6121;SDS011;3091;51.506;7.672;2022-12-29T15:38:54;10.43;;;10.10;;
6121;SDS011;3091;51.506;7.672;2022-12-29T15:41:25;12.10;;;11.43;;
6121;SDS011;3091;51.506;7.672;2022-12-29T15:46:29;10.37;;;10.07;;
6121;SDS011;3091;51.506;7.672;2022-12-29T15:48:56;10.50;;;10.20;;
6121;SDS011;3091;51.506;7.672;2022-12-29T15:51:28;10.30;;;9.90;;
6121;SDS011;3091;51.506;7.672;2022-12-29T15:53:54;11.23;;;10.83;;
6121;SDS011;3091;51.506;7.672;2022-12-29T15:56:21;10.30;;;10.00;;
6121;SDS011;3091;51.506;7.672;2022-12-29T15:58:48;10.50;;;10.20;;
6121;SDS011;3091;51.506;7.672;2022-12-29T16:01:33;11.50;;;10.90;;
6121;SDS011;3091;51.506;7.672;2022-12-29T16:04:01;10.57;;;10.27;;
6121;SDS011;3091;51.506;7.672;2022-12-29T16:06:29;10.80;;;10.50;;
6121;SDS011;3091;51.506;7.672;2022-12-29T16:09:00;10.60;;;10.20;;
6121;SDS011;3091;51.506;7.672;2022-12-29T16:13:59;11.10;;;10.70;;
6121;SDS011;3091;51.506;7.672;2022-12-29T16:16:31;11.70;;;11.30;;
6121;SDS011;3091;51.506;7.672;2022-12-29T16:18:59;10.50;;;10.20;;
6121;SDS011;3091;51.506;7.672;2022-12-29T16:21:33;10.60;;;10.20;;
6121;SDS011;3091;51.506;7.672;2022-12-29T16:24:01;13.33;;;12.73;;
6121;SDS011;3091;51.506;7.672;2022-12-29T16:26:28;10.70;;;10.40;;
6121;SDS011;3091;51.506;7.672;2022-12-29T16:28:55;11.83;;;10.90;;
6121;SDS011;3091;51.506;7.672;2022-12-29T16:31:23;11.40;;;11.00;;
6121;SDS011;3091;51.506;7.672;2022-12-29T16:33:51;11.70;;;11.00;;
6121;SDS011;3091;51.506;7.672;2022-12-29T16:36:33;10.63;;;10.33;;
6121;SDS011;3091;51.506;7.672;2022-12-29T16:41:38;11.30;;;10.80;;
6121;SDS011;3091;51.506;7.672;2022-12-29T16:44:11;11.13;;;10.73;;
6121;SDS011;3091;51.506;7.672;2022-12-29T16:46:38;10.87;;;10.50;;
6121;SDS011;3091;51.506;7.672;2022-12-29T16:49:14;10.80;;;10.50;;
6121;SDS011;3091;51.506;7.672;2022-12-29T16:51:42;10.83;;;10.43;;
6121;SDS011;3091;51.506;7.672;2022-12-29T16:54:13;13.07;;;12.20;;
6121;SDS011;3091;51.506;7.672;2022-12-29T16:56:44;11.80;;;11.20;;
6121;SDS011;3091;51.506;7.672;2022-12-29T17:01:55;11.23;;;10.73;;
6121;SDS011;3091;51.506;7.672;2022-12-29T17:04:22;11.67;;;11.17;;
6121;SDS011;3091;51.506;7.672;2022-12-29T17:06:50;11.27;;;10.87;;
6121;SDS011;3091;51.506;7.672;2022-12-29T17:11:42;11.20;;;10.80;;
6121;SDS011;3091;51.506;7.672;2022-12-29T17:16:48;11.23;;;10.67;;
6121;SDS011;3091;51.506;7.672;2022-12-29T17:19:17;10.60;;;10.30;;
6121;SDS011;3091;51.506;7.672;2022-12-29T17:21:44;11.20;;;10.80;;